Time;durP1;ratioP1;P1;durP2;ratioP2;P2;SDS_P1;SDS_P2;PMS_P1;PMS_P2;Temp;Humidity;BMP_temperature;BMP_pressure;BME280_temperature;BME280_humidity;BME280_pressure;Samples;Min_cycle;Max_cycle;Signal;HPM_P1;HPM_P2
2021/04/16 00:01:09;;;;;;;0.40;0.30;;;;;;;4.66;87.96;101968.22;5053169;28;20477;-68
2021/04/16 00:03:35;;;;;;;0.40;0.30;;;;;;;4.55;86.46;101958.25;5052896;28;20442;-69
2021/04/16 00:06:01;;;;;;;0.40;0.30;;;;;;;4.65;86.88;101965.75;5053007;28;20449;-69
2021/04/16 00:08:30;;;;;;;0.70;0.60;;;;;;;4.61;85.79;101960.03;5052956;28;20449;-69
2021/04/16 00:11:00;;;;;;;0.40;0.30;;;;;;;4.57;85.28;101953.50;5052912;28;20437;-69
2021/04/16 00:13:27;;;;;;;0.40;0.30;;;;;;;4.54;85.31;101948.56;5052701;28;20859;-69
2021/04/16 00:15:54;;;;;;;0.40;0.30;;;;;;;4.52;85.17;101948.81;5052866;28;20434;-69
2021/04/16 00:18:22;;;;;;;0.40;0.30;;;;;;;4.59;84.71;101947.88;5052886;28;20500;-69
2021/04/16 00:20:49;;;;;;;0.40;0.20;;;;;;;4.50;84.30;101942.84;5052830;28;20503;-69
2021/04/16 00:23:15;;;;;;;0.40;0.30;;;;;;;4.48;84.47;101944.94;5052726;28;20462;-69
2021/04/16 00:25:42;;;;;;;0.40;0.30;;;;;;;4.44;84.78;101946.44;5052501;28;20943;-69
2021/04/16 00:28:09;;;;;;;0.40;0.30;;;;;;;4.54;84.11;101940.53;5052763;28;20446;-69
2021/04/16 00:30:39;;;;;;;0.40;0.30;;;;;;;4.60;84.33;101928.06;5052636;28;20441;-69
2021/04/16 00:33:06;;;;;;;0.40;0.30;;;;;;;4.63;83.83;101933.78;5053715;28;20489;-69
2021/04/16 00:35:31;;;;;;;0.50;0.30;;;;;;;4.66;83.44;101933.34;5052685;28;20442;-69
2021/04/16 00:37:58;;;;;;;0.40;0.30;;;;;;;4.74;83.31;101935.72;5052720;28;20442;-69
2021/04/16 00:40:28;;;;;;;0.40;0.40;;;;;;;4.73;82.40;101933.22;5052661;28;20454;-69
2021/04/16 00:42:57;;;;;;;0.40;0.30;;;;;;;4.80;82.36;101931.28;5052877;28;20450;-69
2021/04/16 00:45:25;;;;;;;0.40;0.30;;;;;;;4.78;82.23;101926.16;5052612;28;20450;-69
2021/04/16 00:47:54;;;;;;;1.33;1.23;;;;;;;4.77;82.19;101931.72;5052607;28;20441;-70
2021/04/16 00:50:24;;;;;;;0.50;0.50;;;;;;;4.78;81.59;101923.47;5052568;28;20472;-71
2021/04/16 00:52:50;;;;;;;0.80;0.40;;;;;;;4.84;82.03;101923.59;5052393;28;20466;-70
2021/04/16 00:55:18;;;;;;;0.40;0.30;;;;;;;4.81;81.05;101920.31;5052506;28;20445;-70
2021/04/16 00:57:44;;;;;;;0.50;0.40;;;;;;;4.75;80.92;101925.78;5052480;28;20446;-70
2021/04/16 01:00:13;;;;;;;0.40;0.30;;;;;;;4.71;80.64;101924.59;5053814;28;20786;-71
2021/04/16 01:02:39;;;;;;;0.40;0.30;;;;;;;4.79;80.47;101919.72;5056030;28;20489;-70
2021/04/16 01:05:08;;;;;;;0.40;0.30;;;;;;;4.78;80.17;101919.94;5056099;28;20805;-70
2021/04/16 01:07:34;;;;;;;0.40;0.30;;;;;;;4.87;80.70;101921.28;5055970;28;20445;-71
2021/04/16 01:10:00;;;;;;;0.40;0.30;;;;;;;4.86;80.05;101916.94;5055988;28;20441;-70
2021/04/16 01:12:26;;;;;;;0.67;0.40;;;;;;;4.88;79.39;101917.53;5055529;28;21013;-71
2021/04/16 01:15:01;;;;;;;0.40;0.30;;;;;;;4.96;79.07;101921.75;5055572;28;20486;-71
2021/04/16 01:17:28;;;;;;;0.80;0.30;;;;;;;4.96;78.36;101925.25;5055947;28;20839;-70
2021/04/16 01:20:01;;;;;;;0.40;0.40;;;;;;;4.98;77.84;101922.34;5055836;28;20445;-70
2021/04/16 01:22:32;;;;;;;0.40;0.30;;;;;;;5.02;78.29;101927.03;5055717;28;20462;-70
2021/04/16 01:25:00;;;;;;;0.40;0.30;;;;;;;5.11;78.75;101919.44;5055751;28;20425;-70
2021/04/16 01:27:26;;;;;;;0.60;0.40;;;;;;;5.10;77.81;101922.38;5055663;28;20446;-70
2021/04/16 01:29:53;;;;;;;0.40;0.30;;;;;;;5.15;78.14;101914.44;5055335;28;20963;-70
2021/04/16 01:32:25;;;;;;;0.90;0.40;;;;;;;5.13;77.70;101911.16;5061799;28;20481;-70
2021/04/16 01:34:51;;;;;;;1.13;0.30;;;;;;;5.18;77.23;101917.47;5055111;28;20536;-71
2021/04/16 01:37:17;;;;;;;0.50;0.40;;;;;;;5.04;76.31;101914.16;5055488;28;20446;-70
2021/04/16 01:39:43;;;;;;;0.40;0.30;;;;;;;5.15;76.79;101920.63;5055261;28;20935;-71
2021/04/16 01:42:10;;;;;;;1.60;1.40;;;;;;;5.22;76.55;101915.13;5055364;28;20466;-70
2021/04/16 01:44:36;;;;;;;0.40;0.30;;;;;;;5.18;76.05;101922.00;5055294;28;20434;-70
2021/04/16 01:47:06;;;;;;;0.40;0.30;;;;;;;5.10;75.59;101920.50;5055334;28;20797;-71
2021/04/16 01:49:34;;;;;;;0.40;0.30;;;;;;;5.14;75.89;101923.53;5055215;28;20441;-70
2021/04/16 01:52:00;;;;;;;0.40;0.30;;;;;;;5.22;75.67;101921.34;5055177;28;20469;-70
2021/04/16 01:54:28;;;;;;;0.50;0.40;;;;;;;5.15;75.76;101923.31;5055072;28;20482;-70
2021/04/16 01:56:57;;;;;;;0.40;0.30;;;;;;;5.10;75.93;101917.81;5054871;28;20453;-70
2021/04/16 01:59:26;;;;;;;0.40;0.30;;;;;;;5.10;75.91;101912.44;5054551;28;20947;-70
2021/04/16 02:01:53;;;;;;;0.50;0.50;;;;;;;5.15;75.77;101914.44;5054926;28;20450;-69
2021/04/16 02:04:19;;;;;;;0.40;0.30;;;;;;;5.17;76.03;101913.13;5054673;28;20955;-69
2021/04/16 02:06:46;;;;;;;0.40;0.30;;;;;;;5.14;75.60;101908.25;5055045;28;20442;-70
2021/04/16 02:09:14;;;;;;;0.60;0.30;;;;;;;5.10;76.39;101917.00;5055125;28;20504;-70
2021/04/16 02:11:43;;;;;;;0.40;0.30;;;;;;;5.05;76.42;101905.09;5054751;28;20459;-70
2021/04/16 02:14:10;;;;;;;0.40;0.30;;;;;;;5.20;76.40;101915.38;5054768;28;20493;-70
2021/04/16 02:16:37;;;;;;;0.40;0.30;;;;;;;5.26;75.91;101910.94;5054718;28;20808;-70
2021/04/16 02:19:04;;;;;;;0.40;0.30;;;;;;;5.39;76.49;101899.94;5054492;28;20939;-70
2021/04/16 02:21:30;;;;;;;0.40;0.30;;;;;;;5.27;75.65;101905.34;5054605;28;20466;-69
2021/04/16 02:23:56;;;;;;;0.40;0.30;;;;;;;5.30;75.38;101907.53;5054863;28;20488;-70
2021/04/16 02:26:22;;;;;;;0.40;0.30;;;;;;;5.23;75.56;101912.22;5054636;28;20442;-69
2021/04/16 02:28:48;;;;;;;0.40;0.30;;;;;;;5.15;75.84;101914.44;5054235;28;20449;-69
2021/04/16 02:31:14;;;;;;;0.57;0.37;;;;;;;5.16;75.77;101911.50;5053996;28;20450;-70
2021/04/16 02:33:42;;;;;;;0.40;0.20;;;;;;;5.21;75.34;101900.88;5054078;28;20481;-70
2021/04/16 02:36:09;;;;;;;0.40;0.30;;;;;;;5.20;75.60;101918.06;5054435;28;20442;-70
2021/04/16 02:38:36;;;;;;;0.40;0.30;;;;;;;5.23;75.30;101914.91;5054260;28;20442;-70
2021/04/16 02:41:03;;;;;;;0.40;0.30;;;;;;;5.24;75.24;101918.41;5054136;28;20982;-70
2021/04/16 02:43:29;;;;;;;0.40;0.30;;;;;;;5.28;74.72;101912.34;5054219;28;20459;-69
2021/04/16 02:45:55;;;;;;;0.50;0.47;;;;;;;5.31;74.62;101914.56;5054248;28;20446;-69
2021/04/16 02:48:21;;;;;;;0.40;0.30;;;;;;;5.31;74.76;101911.88;5054138;28;20973;-69
2021/04/16 02:50:49;;;;;;;1.67;0.87;;;;;;;5.20;74.38;101917.25;5053861;28;20537;-69
2021/04/16 02:53:15;;;;;;;0.40;0.30;;;;;;;5.11;75.30;101922.13;5053971;28;20528;-70
2021/04/16 02:55:41;;;;;;;0.40;0.30;;;;;;;5.14;74.67;101907.44;5054054;28;20450;-70
2021/04/16 02:58:08;;;;;;;0.60;0.50;;;;;;;5.19;74.93;101911.06;5053998;28;20897;-69
2021/04/16 03:00:34;;;;;;;0.40;0.30;;;;;;;5.07;74.72;101896.78;5053893;28;20434;-70
2021/04/16 03:03:00;;;;;;;0.40;0.37;;;;;;;5.10;75.43;101898.19;5053841;28;20991;-70
2021/04/16 03:05:27;;;;;;;0.40;0.30;;;;;;;5.03;75.53;101906.34;5053812;28;20443;-70
2021/04/16 03:07:54;;;;;;;7.30;0.67;;;;;;;5.10;75.63;101904.38;5053490;28;20808;-69
2021/04/16 03:10:22;;;;;;;0.40;0.30;;;;;;;5.10;75.63;101898.19;5053754;28;20442;-70
2021/04/16 03:12:48;;;;;;;0.40;0.30;;;;;;;5.08;75.52;101898.41;5053622;28;20462;-70
2021/04/16 03:15:15;;;;;;;0.40;0.30;;;;;;;5.08;75.63;101898.41;5059158;28;20486;-70
2021/04/16 03:17:41;;;;;;;0.40;0.30;;;;;;;5.05;75.99;101902.41;5053647;28;20450;-70
2021/04/16 03:20:09;;;;;;;0.40;0.30;;;;;;;5.09;75.77;101905.44;5053743;28;20957;-69
2021/04/16 03:22:35;;;;;;;0.70;0.40;;;;;;;5.07;75.82;101907.53;5052962;28;20470;-68
2021/04/16 03:25:03;;;;;;;0.50;0.50;;;;;;;5.13;76.32;101900.41;5053351;28;20450;-67
2021/04/16 03:27:29;;;;;;;0.40;0.30;;;;;;;5.19;76.00;101905.69;5053482;28;20472;-70
2021/04/16 03:29:55;;;;;;;0.40;0.30;;;;;;;5.22;75.99;101907.91;5053469;28;20438;-70
2021/04/16 03:32:21;;;;;;;0.40;0.30;;;;;;;5.21;75.69;101900.88;5052845;28;20485;-70
2021/04/16 03:34:47;;;;;;;0.70;0.40;;;;;;;5.20;75.85;101910.00;5053300;28;20560;-70
2021/04/16 03:37:13;;;;;;;0.50;0.40;;;;;;;5.23;76.17;101903.34;5053337;28;20438;-71
2021/04/16 03:39:39;;;;;;;0.40;0.30;;;;;;;5.09;75.89;101908.13;5053296;28;20446;-70
2021/04/16 03:42:06;;;;;;;0.60;0.43;;;;;;;5.12;75.78;101914.88;5053360;28;20569;-70
2021/04/16 03:44:32;;;;;;;0.40;0.30;;;;;;;5.05;76.08;101915.00;5052551;28;20858;-70
2021/04/16 03:46:58;;;;;;;0.40;0.40;;;;;;;5.12;76.31;101914.88;5053522;28;20480;-68
2021/04/16 03:49:24;;;;;;;0.40;0.30;;;;;;;5.13;75.76;101911.16;5053109;28;20450;-68
2021/04/16 03:51:53;;;;;;;0.50;0.50;;;;;;;5.02;75.70;101910.91;5053128;28;20492;-68
2021/04/16 03:54:19;;;;;;;0.40;0.30;;;;;;;5.04;76.11;101913.34;5053061;28;20486;-68
2021/04/16 03:56:45;;;;;;;0.40;0.30;;;;;;;5.12;76.20;101909.53;5053073;28;20796;-68
2021/04/16 03:59:13;;;;;;;0.40;0.30;;;;;;;5.09;75.87;101907.28;5053099;28;20477;-68
2021/04/16 04:01:39;;;;;;;0.40;0.30;;;;;;;5.08;76.21;101906.47;5052665;28;20842;-69
2021/04/16 04:04:06;;;;;;;0.40;0.30;;;;;;;5.00;76.10;101907.66;5053033;28;20442;-69
2021/04/16 04:06:32;;;;;;;0.40;0.30;;;;;;;5.03;76.15;101903.66;5052649;28;20943;-68
2021/04/16 04:08:58;;;;;;;0.40;0.30;;;;;;;5.01;76.67;101908.47;5052719;28;20973;-66
2021/04/16 04:11:24;;;;;;;0.90;0.50;;;;;;;5.17;76.67;101912.31;5052916;28;20442;-69
2021/04/16 04:13:51;;;;;;;0.40;0.30;;;;;;;5.10;76.99;101912.44;5052584;28;20573;-69
2021/04/16 04:16:18;;;;;;;0.40;0.30;;;;;;;5.15;76.49;101914.44;5052928;28;20443;-67
2021/04/16 04:18:44;;;;;;;0.60;0.40;;;;;;;5.20;76.85;101911.88;5052673;28;20943;-67
2021/04/16 04:21:10;;;;;;;0.40;0.30;;;;;;;5.25;76.40;101917.34;5052821;28;20438;-67
2021/04/16 04:23:36;;;;;;;0.40;0.20;;;;;;;5.16;76.36;101916.88;5052539;28;20814;-67
2021/04/16 04:26:02;;;;;;;0.40;0.30;;;;;;;5.17;77.20;101915.00;5052168;28;20472;-68
2021/04/16 04:28:28;;;;;;;0.40;0.30;;;;;;;5.23;76.91;101912.22;5052796;28;20442;-67
2021/04/16 04:30:54;;;;;;;4.10;1.50;;;;;;;5.31;77.08;101919.09;5052812;28;20453;-67
2021/04/16 04:33:20;;;;;;;0.40;0.30;;;;;;;5.30;76.86;101923.66;5052225;28;20851;-67
2021/04/16 04:35:47;;;;;;;0.40;0.30;;;;;;;5.31;76.96;101919.94;5055156;28;20457;-67
2021/04/16 04:38:13;;;;;;;0.40;0.30;;;;;;;5.29;76.84;101927.41;5056271;28;21012;-67
2021/04/16 04:40:39;;;;;;;0.40;0.20;;;;;;;5.22;76.95;101926.72;5056543;28;20445;-67
2021/04/16 04:43:05;;;;;;;0.40;0.30;;;;;;;5.16;76.93;101934.88;5056600;28;20466;-66
2021/04/16 04:45:31;;;;;;;0.40;0.30;;;;;;;5.25;76.70;101920.03;5056509;28;20438;-65
2021/04/16 04:47:57;;;;;;;0.40;0.30;;;;;;;5.14;76.74;101929.72;5056456;28;20438;-65
2021/04/16 04:50:26;;;;;;;0.50;0.43;;;;;;;5.13;76.83;101925.38;5056428;28;20815;-65
2021/04/16 04:52:53;;;;;;;0.40;0.30;;;;;;;5.05;76.87;101925.75;5055993;28;20859;-65
2021/04/16 04:55:22;;;;;;;0.40;0.30;;;;;;;5.10;77.20;101922.38;5056290;28;20485;-66
2021/04/16 04:57:48;;;;;;;0.40;0.30;;;;;;;5.19;76.87;101921.78;5057902;28;20442;-66
2021/04/16 05:00:16;;;;;;;0.40;0.30;;;;;;;5.11;77.11;101924.81;5056194;28;20442;-66
2021/04/16 05:02:42;;;;;;;0.40;0.30;;;;;;;5.11;76.83;101918.63;5056167;28;20457;-66
2021/04/16 05:05:10;;;;;;;0.40;0.30;;;;;;;5.14;76.90;101926.22;5056129;28;20438;-65
2021/04/16 05:07:37;;;;;;;0.40;0.30;;;;;;;5.07;76.95;101927.13;5056023;28;20450;-65
2021/04/16 05:10:04;;;;;;;0.50;0.37;;;;;;;5.01;77.63;101925.38;5055988;28;20441;-65
2021/04/16 05:12:30;;;;;;;0.77;0.77;;;;;;;5.01;78.11;101919.22;5055926;28;20523;-67
2021/04/16 05:14:56;;;;;;;2.20;0.60;;;;;;;5.05;77.80;101925.75;5055848;28;20482;-65
2021/04/16 05:17:22;;;;;;;0.40;0.30;;;;;;;5.12;78.06;101931.00;5055888;28;20853;-67
2021/04/16 05:19:48;;;;;;;0.40;0.30;;;;;;;5.24;77.95;101927.28;5055887;28;21008;-67
2021/04/16 05:22:15;;;;;;;0.40;0.30;;;;;;;5.26;77.22;101930.53;5055461;28;20979;-68
2021/04/16 05:24:42;;;;;;;0.40;0.30;;;;;;;5.31;77.33;101932.53;5055795;28;20504;-67
2021/04/16 05:27:10;;;;;;;0.40;0.30;;;;;;;5.30;77.37;101931.72;5055793;28;20438;-68
2021/04/16 05:29:36;;;;;;;0.40;0.20;;;;;;;5.31;77.60;101933.38;5055615;28;20430;-67
2021/04/16 05:32:03;;;;;;;0.40;0.30;;;;;;;5.25;78.02;101928.91;5055185;28;20474;-67
2021/04/16 05:34:29;;;;;;;0.40;0.30;;;;;;;5.26;78.02;101927.03;5055489;28;20478;-67
2021/04/16 05:36:55;;;;;;;0.40;0.30;;;;;;;5.34;77.73;101933.94;5055217;28;20449;-67
2021/04/16 05:39:22;;;;;;;1.07;1.07;;;;;;;5.49;77.33;101931.59;5055488;28;20492;-67
2021/04/16 05:41:49;;;;;;;0.40;0.30;;;;;;;5.48;77.09;101922.72;5055316;28;20454;-67
2021/04/16 05:44:15;;;;;;;0.60;0.40;;;;;;;5.51;76.63;101927.66;5055445;28;20461;-67
2021/04/16 05:46:41;;;;;;;0.77;0.57;;;;;;;5.57;76.48;101928.56;5055025;28;20442;-67
2021/04/16 05:49:07;;;;;;;0.50;0.40;;;;;;;5.55;76.69;101936.06;5055290;28;20453;-67
2021/04/16 05:51:33;;;;;;;0.40;0.30;;;;;;;5.35;77.06;101931.03;5054851;28;20493;-67
2021/04/16 05:53:59;;;;;;;0.40;0.30;;;;;;;5.42;77.31;101936.28;5054888;28;21060;-68
2021/04/16 05:56:25;;;;;;;0.40;0.30;;;;;;;5.37;77.88;101944.25;5055134;28;20442;-68
2021/04/16 05:58:52;;;;;;;0.77;0.77;;;;;;;5.28;77.60;101941.06;5055137;28;20491;-68
2021/04/16 06:01:18;;;;;;;0.40;0.30;;;;;;;5.45;77.65;101935.84;5054959;28;20512;-68
2021/04/16 06:03:46;;;;;;;0.40;0.30;;;;;;;5.55;76.79;101936.06;5055073;28;20442;-68
2021/04/16 06:06:12;;;;;;;0.50;0.50;;;;;;;5.56;77.36;101935.00;5055008;28;20613;-68
2021/04/16 06:08:38;;;;;;;0.50;0.40;;;;;;;5.36;77.21;101932.69;5054914;28;20458;-69
2021/04/16 06:11:05;;;;;;;1.10;1.03;;;;;;;5.35;78.67;101939.06;5054952;28;20438;-69
2021/04/16 06:13:31;;;;;;;0.40;0.30;;;;;;;5.61;78.40;101928.94;5054171;28;20482;-69
2021/04/16 06:15:59;;;;;;;2.63;1.27;;;;;;;5.71;77.79;101934.53;5054763;28;20457;-70
2021/04/16 06:18:25;;;;;;;0.40;0.30;;;;;;;5.85;77.32;101946.69;5054654;28;20446;-70
2021/04/16 06:20:51;;;;;;;0.50;0.50;;;;;;;5.92;76.64;101935.81;5054728;28;20465;-69
2021/04/16 06:23:17;;;;;;;0.40;0.30;;;;;;;5.84;76.89;101939.66;5054256;28;20462;-69
2021/04/16 06:25:43;;;;;;;0.40;0.30;;;;;;;5.94;77.17;101945.31;5054623;28;20496;-69
2021/04/16 06:28:10;;;;;;;0.40;0.30;;;;;;;5.95;76.62;101946.94;5054551;28;20442;-68
2021/04/16 06:30:36;;;;;;;0.50;0.40;;;;;;;5.98;76.77;101941.09;5054419;28;20434;-67
2021/04/16 06:33:06;;;;;;;0.50;0.33;;;;;;;5.99;77.37;101939.22;5054035;28;20474;-68
2021/04/16 06:35:33;;;;;;;0.40;0.40;;;;;;;6.10;76.92;101932.97;5054370;28;20485;-73
2021/04/16 06:37:59;;;;;;;1.23;0.63;;;;;;;6.19;76.05;101941.50;5054390;28;20825;-69
2021/04/16 06:40:26;;;;;;;0.40;0.20;;;;;;;6.18;76.69;101940.69;5054372;28;20445;-69
2021/04/16 06:42:52;;;;;;;1.27;0.57;;;;;;;6.11;76.44;101949.94;5059825;28;20454;-68
2021/04/16 06:45:22;;;;;;;0.40;0.30;;;;;;;6.12;76.38;101940.81;5054208;28;20492;-67
2021/04/16 06:47:54;;;;;;;0.40;0.30;;;;;;;6.26;75.87;101940.31;5053876;28;20814;-67
2021/04/16 06:50:25;;;;;;;0.40;0.30;;;;;;;6.24;76.08;101930.84;5054094;28;20438;-68
2021/04/16 06:52:55;;;;;;;0.67;0.43;;;;;;;6.29;75.54;101937.16;5054118;28;20827;-68
2021/04/16 06:55:26;;;;;;;0.40;0.20;;;;;;;6.37;75.87;101935.13;5053634;28;20971;-68
2021/04/16 06:57:56;;;;;;;0.50;0.50;;;;;;;6.63;75.62;101933.72;5053356;28;20430;-68
2021/04/16 07:00:30;;;;;;;0.40;0.30;;;;;;;6.52;75.17;101935.44;5053570;28;20966;-68
2021/04/16 07:03:08;;;;;;;0.40;0.30;;;;;;;6.49;75.53;101936.72;5053839;28;20791;-66
2021/04/16 07:05:40;;;;;;;0.60;0.50;;;;;;;6.69;74.82;101941.69;5053738;28;20466;-68
2021/04/16 07:08:07;;;;;;;0.40;0.30;;;;;;;6.82;74.25;101941.38;5053914;28;20435;-67
2021/04/16 07:10:37;;;;;;;0.40;0.30;;;;;;;6.93;73.90;101938.84;5053431;28;20831;-67
2021/04/16 07:13:05;;;;;;;0.60;0.40;;;;;;;6.94;74.05;101946.69;5053656;28;20466;-67
2021/04/16 07:15:37;;;;;;;1.03;0.50;;;;;;;6.98;74.67;101938.94;5053470;28;20828;-67
2021/04/16 07:18:05;;;;;;;0.40;0.30;;;;;;;7.19;74.70;101946.31;5053721;28;20438;-67
2021/04/16 07:20:31;;;;;;;1.07;1.07;;;;;;;7.27;74.00;101939.69;5053520;28;20448;-67
2021/04/16 07:22:58;;;;;;;2.03;0.63;;;;;;;7.24;72.46;101938.31;5053711;28;20834;-67
2021/04/16 07:25:34;;;;;;;0.40;0.30;;;;;;;7.37;72.78;101941.75;5053439;28;20465;-68
2021/04/16 07:28:06;;;;;;;0.40;0.30;;;;;;;7.36;71.96;101951.69;5053211;28;20442;-67
2021/04/16 07:30:44;;;;;;;0.60;0.60;;;;;;;7.31;72.40;101938.97;5053503;28;20480;-67
2021/04/16 07:33:29;;;;;;;0.40;0.40;;;;;;;7.40;72.62;101933.97;5053268;28;20474;-67
2021/04/16 07:36:17;;;;;;;0.70;0.47;;;;;;;7.32;71.77;101937.91;5053207;28;20438;-67
2021/04/16 07:38:57;;;;;;;0.60;0.60;;;;;;;7.46;72.08;101941.06;5053315;28;20470;-69
2021/04/16 07:41:26;;;;;;;0.40;0.40;;;;;;;7.44;71.51;101942.41;5052950;28;20509;-68
2021/04/16 07:43:56;;;;;;;0.40;0.30;;;;;;;7.62;71.12;101944.81;5052897;28;20948;-68
2021/04/16 07:46:40;;;;;;;0.50;0.30;;;;;;;7.71;70.50;101948.72;5053202;28;20583;-68
2021/04/16 07:49:30;;;;;;;0.50;0.40;;;;;;;7.68;69.78;101943.81;5078147;22;20493;-63
2021/04/16 07:52:17;;;;;;;0.40;0.20;;;;;;;7.50;70.25;101936.81;5053272;28;20431;-64
2021/04/16 07:55:04;;;;;;;0.40;0.30;;;;;;;7.66;70.30;101945.97;5053251;28;20473;-62
2021/04/16 07:57:31;;;;;;;0.90;0.77;;;;;;;7.63;70.32;101949.16;5053112;28;20438;-62
2021/04/16 07:59:59;;;;;;;0.40;0.40;;;;;;;7.62;69.39;101947.53;5053274;28;20541;-63
2021/04/16 08:02:29;;;;;;;0.40;0.30;;;;;;;7.71;69.04;101951.44;5052751;28;20954;-63
2021/04/16 08:04:56;;;;;;;0.40;0.30;;;;;;;8.00;68.60;101951.25;5053157;28;20422;-63
2021/04/16 08:07:28;;;;;;;0.90;0.50;;;;;;;8.19;68.21;101949.91;5052974;28;20464;-62
2021/04/16 08:09:57;;;;;;;0.40;0.30;;;;;;;8.39;67.92;101957.44;5055593;28;20969;-62
2021/04/16 08:12:26;;;;;;;0.50;0.40;;;;;;;8.51;66.69;101951.94;5056837;28;20943;-61
2021/04/16 08:15:11;;;;;;;0.40;0.30;;;;;;;8.52;66.46;101961.66;5057262;28;20477;-63
2021/04/16 08:17:37;;;;;;;0.40;0.30;;;;;;;8.29;65.91;101968.09;5057083;28;20434;-63
2021/04/16 08:20:17;;;;;;;1.07;0.53;;;;;;;8.48;67.09;101957.81;5057025;28;20453;-63
2021/04/16 08:22:43;;;;;;;2.03;1.13;;;;;;;8.79;65.93;101964.38;5057080;28;20449;-62
2021/04/16 08:25:14;;;;;;;3.30;0.47;;;;;;;8.97;64.10;101965.88;5056937;28;20438;-63
2021/04/16 08:27:44;;;;;;;0.50;0.40;;;;;;;9.16;65.16;101964.44;5056891;28;20458;-63
2021/04/16 08:30:20;;;;;;;0.73;0.63;;;;;;;9.12;63.55;101963.34;5056926;28;20446;-63
2021/04/16 08:32:53;;;;;;;1.30;0.63;;;;;;;9.14;64.34;101965.78;5057017;28;20438;-63
2021/04/16 08:35:23;;;;;;;2.00;0.80;;;;;;;8.91;63.35;101966.94;5056698;28;20466;-64
2021/04/16 08:37:54;;;;;;;0.70;0.70;;;;;;;8.62;64.62;101967.16;5056469;28;20466;-63
2021/04/16 08:40:27;;;;;;;0.40;0.30;;;;;;;8.74;64.81;101973.22;5056760;28;20422;-63
2021/04/16 08:42:56;;;;;;;0.93;0.63;;;;;;;8.85;64.81;101963.34;5056800;28;20418;-63
2021/04/16 08:45:26;;;;;;;0.40;0.30;;;;;;;8.92;64.83;101957.75;5056739;28;20434;-63
2021/04/16 08:47:56;;;;;;;0.50;0.40;;;;;;;8.96;63.37;101961.56;5056205;28;20568;-63
2021/04/16 08:50:27;;;;;;;0.40;0.30;;;;;;;8.77;64.33;101966.53;5056539;28;20469;-63
2021/04/16 08:52:55;;;;;;;0.40;0.30;;;;;;;9.06;63.65;101965.16;5056688;28;20422;-63
2021/04/16 08:55:28;;;;;;;0.50;0.40;;;;;;;9.15;63.35;101957.41;5056418;28;20478;-63
2021/04/16 08:57:59;;;;;;;0.53;0.53;;;;;;;9.25;63.44;101968.31;5056323;28;20458;-63
2021/04/16 09:00:33;;;;;;;0.53;0.37;;;;;;;9.57;62.43;101959.38;5056374;28;20427;-63
2021/04/16 09:03:01;;;;;;;0.40;0.20;;;;;;;9.72;62.98;101956.75;5056262;28;20429;-63
2021/04/16 09:05:30;;;;;;;0.67;0.43;;;;;;;9.61;61.08;101963.19;5056199;28;20488;-63
2021/04/16 09:08:00;;;;;;;0.50;0.30;;;;;;;9.34;61.86;101955.97;5055761;28;20465;-63
2021/04/16 09:10:41;;;;;;;1.00;0.63;;;;;;;9.17;62.85;101955.28;5056256;28;20448;-63
2021/04/16 09:13:12;;;;;;;2.97;0.50;;;;;;;9.34;63.49;101961.38;5056236;28;20434;-63
2021/04/16 09:15:42;;;;;;;2.23;0.77;;;;;;;9.50;61.26;101956.06;5056186;28;20470;-63
2021/04/16 09:18:24;;;;;;;0.40;0.30;;;;;;;9.78;61.89;101960.28;5056028;28;20466;-63
2021/04/16 09:21:15;;;;;;;0.50;0.50;;;;;;;9.94;60.18;101955.78;5053230;28;20453;-63
2021/04/16 09:24:09;;;;;;;0.40;0.30;;;;;;;10.06;59.85;101956.41;5055657;28;20446;-63
2021/04/16 09:26:59;;;;;;;0.50;0.40;;;;;;;10.37;60.54;101949.25;5055915;28;20457;-63
2021/04/16 09:29:47;;;;;;;0.50;0.30;;;;;;;10.57;58.56;101951.19;5055645;28;20462;-63
2021/04/16 09:32:46;;;;;;;0.40;0.30;;;;;;;10.65;57.04;101953.38;5055784;28;20430;-63
2021/04/16 09:35:53;;;;;;;0.40;0.30;;;;;;;10.79;57.71;101942.84;5055734;28;20841;-63
2021/04/16 09:38:51;;;;;;;9.00;0.60;;;;;;;11.04;57.73;101948.28;5055628;28;20523;-63
2021/04/16 09:41:36;;;;;;;0.60;0.50;;;;;;;10.91;54.87;101945.28;5021731;28;20458;-63
2021/04/16 09:44:34;;;;;;;0.93;0.50;;;;;;;10.82;56.32;101950.44;5055604;28;20423;-63
2021/04/16 09:47:02;;;;;;;0.57;0.40;;;;;;;10.83;56.60;101946.63;5055681;28;20434;-63
2021/04/16 09:49:35;;;;;;;0.70;0.70;;;;;;;10.67;55.74;101945.81;5055096;28;20485;-63
2021/04/16 09:52:39;;;;;;;0.40;0.30;;;;;;;10.59;56.37;101943.63;5055438;28;20442;-63
2021/04/16 09:55:57;;;;;;;0.40;0.30;;;;;;;10.32;57.25;101946.53;5055434;28;20485;-64
2021/04/16 09:58:59;;;;;;;0.40;0.30;;;;;;;10.37;58.55;101946.53;4993668;28;20552;-65
2021/04/16 10:01:26;;;;;;;0.40;0.30;;;;;;;10.48;57.08;101948.19;4993698;28;20432;-64
2021/04/16 10:03:56;;;;;;;0.40;0.30;;;;;;;10.70;56.30;101956.09;5035928;28;20809;-65
2021/04/16 10:06:39;;;;;;;0.53;0.50;;;;;;;11.00;56.87;101939.06;5055156;28;20438;-63
2021/04/16 10:09:23;;;;;;;0.40;0.30;;;;;;;10.86;54.81;101952.34;5053699;28;20477;-64
2021/04/16 10:11:52;;;;;;;0.47;0.30;;;;;;;11.19;54.64;101942.03;5054914;28;20415;-63
2021/04/16 10:14:26;;;;;;;0.50;0.40;;;;;;;11.16;54.08;101945.31;5054984;28;20505;-64
2021/04/16 10:16:55;;;;;;;0.90;0.67;;;;;;;11.46;54.32;101938.22;5054737;28;20440;-64
2021/04/16 10:19:24;;;;;;;0.40;0.30;;;;;;;11.54;53.17;101943.09;5054715;28;20496;-64
2021/04/16 10:21:50;;;;;;;0.50;0.40;;;;;;;11.19;53.39;101942.03;5054777;28;20442;-64
2021/04/16 12:39:05;;;;;;;0.80;0.50;;;;;;;17.61;34.46;101886.09;5052641;28;20993;-63
2021/04/16 12:41:34;;;;;;;0.50;0.47;;;;;;;17.04;35.02;101883.25;5052785;28;20469;-63
2021/04/16 12:44:02;;;;;;;0.60;0.40;;;;;;;17.38;35.17;101884.56;5052450;28;20935;-63
2021/04/16 12:46:32;;;;;;;0.40;0.30;;;;;;;17.03;34.90;101883.56;5052746;28;20469;-63
2021/04/16 12:48:58;;;;;;;0.47;0.37;;;;;;;16.11;36.61;101874.75;5052349;28;20528;-63
2021/04/16 12:51:24;;;;;;;0.60;0.40;;;;;;;15.92;38.60;101879.53;5052730;28;20439;-63
2021/04/16 12:53:50;;;;;;;0.50;0.40;;;;;;;15.97;37.71;101872.03;5052656;28;20445;-63
2021/04/16 12:56:21;;;;;;;1.20;0.90;;;;;;;16.45;36.88;101877.00;5054071;28;20446;-63
2021/04/16 12:58:47;;;;;;;0.83;0.50;;;;;;;16.33;36.82;101854.84;5056695;28;20458;-63
2021/04/16 13:01:22;;;;;;;0.50;0.30;;;;;;;17.42;35.87;101854.63;5056323;28;20449;-63
2021/04/16 13:03:50;;;;;;;1.33;0.50;;;;;;;17.88;34.63;101860.44;5055953;28;20426;-63
2021/04/16 13:06:23;;;;;;;0.40;0.30;;;;;;;18.53;35.06;101863.41;5056300;28;20820;-63
2021/04/16 13:08:50;;;;;;;0.80;0.50;;;;;;;20.03;32.80;101856.78;5056125;28;20496;-63
2021/04/16 13:11:17;;;;;;;0.40;0.30;;;;;;;20.72;32.39;101866.47;5056165;28;20449;-63
2021/04/16 13:13:43;;;;;;;0.50;0.40;;;;;;;20.71;31.84;101853.81;5056202;28;20442;-63
2021/04/16 13:16:10;;;;;;;0.50;0.40;;;;;;;19.84;29.77;101856.44;5055959;28;20486;-63
2021/04/16 13:18:40;;;;;;;2.10;0.70;;;;;;;18.55;32.63;101867.44;5055993;28;20508;-62
2021/04/16 13:21:07;;;;;;;0.97;0.40;;;;;;;17.01;34.73;101855.72;5056004;28;20462;-63
2021/04/16 13:23:33;;;;;;;0.63;0.40;;;;;;;16.99;34.82;101849.72;5055904;28;20668;-65
2021/04/16 13:25:59;;;;;;;1.53;0.50;;;;;;;16.83;34.88;101854.78;5055746;28;20450;-65
2021/04/16 13:28:25;;;;;;;0.40;0.30;;;;;;;16.08;34.18;101853.50;5054612;28;20473;-66
2021/04/16 13:30:51;;;;;;;0.67;0.53;;;;;;;16.14;34.60;101855.00;5055809;28;20438;-65
2021/04/16 13:33:19;;;;;;;0.40;0.30;;;;;;;16.04;35.29;101855.25;5055622;28;20442;-64
2021/04/16 13:35:49;;;;;;;1.80;0.50;;;;;;;16.65;35.71;101840.97;5055649;28;20482;-64
2021/04/16 13:38:17;;;;;;;0.50;0.40;;;;;;;16.62;35.76;101851.72;5055626;28;20466;-64
2021/04/16 13:40:44;;;;;;;2.47;0.60;;;;;;;16.35;36.11;101847.97;5055616;28;20445;-65
2021/04/16 13:43:11;;;;;;;0.50;0.40;;;;;;;14.93;37.74;101848.88;5055620;28;20434;-65
2021/04/16 13:45:37;;;;;;;0.40;0.30;;;;;;;14.21;38.97;101848.34;5055515;28;20465;-65
2021/04/16 13:48:04;;;;;;;1.13;0.80;;;;;;;13.94;39.63;101851.69;5079011;22;20516;-69
2021/04/16 13:50:31;;;;;;;0.50;0.50;;;;;;;13.42;41.03;101839.81;5035390;28;20428;-69
2021/04/16 13:52:58;;;;;;;0.50;0.40;;;;;;;13.29;41.27;101852.19;5035318;28;20442;-69
2021/04/16 13:55:25;;;;;;;0.70;0.50;;;;;;;13.15;40.35;101838.44;5035285;28;20558;-68
2021/04/16 13:57:51;;;;;;;0.50;0.40;;;;;;;13.17;41.72;101844.38;5035232;28;20450;-69